Impacts METAR Board INFO
IDs:

KDCA - Washington/National, VA, US

Updated at: 0500 UTC 18 Dec 2017
Potential Impact None Slight Moderate High
Time17/17Z 17/18Z 17/19Z 17/20Z 17/21Z 17/22Z 17/23Z 18/00Z 18/01Z 18/02Z 18/03Z 18/04Z 18/05Z
VIS10 10 10 10 10 10 10 10 10 10 10 10 10
CIG120 120 120 120 110 120 100 85 100 75 65 60 60
CoverOVCOVCOVCOVCOVCOVCOVCOVCOVCOVCOVCOVCOVC
FltCatVFRVFRVFRVFRVFRVFRVFRVFRVFRVFRVFRVFRVFR
WX--------------------------
WDir17019019024017016016015018019020000
WSpd6 6 4 3 4 3 5 3 7 3 5 0 0
WGst-- -- -- -- -- -- -- -- -- -- -- -- --
Raw hourly METARs
KDCA 171652Z 17006KT 10SM BKN120 OVC250 08/00 A3026 RMK AO2 SLP248 T00780000
KDCA 171752Z COR 19006KT 10SM BKN120 OVC250 09/M01 A3023 RMK AO2 SLP237 T00941006 10094 20000 58009
KDCA 171852Z 19004KT 10SM BKN120 OVC250 08/01 A3020 RMK AO2 SLP227 T00830006
KDCA 171952Z 24003KT 10SM BKN120 OVC250 10/00 A3020 RMK AO2 SLP228 T01000000
KDCA 172052Z 17004KT 10SM BKN110 OVC250 08/02 A3018 RMK AO2 SLP219 T00830017 56018
KDCA 172152Z 16003KT 10SM OVC120 08/M01 A3020 RMK AO2 SLP225 T00831011
KDCA 172252Z 16005KT 10SM BKN100 OVC120 08/00 A3022 RMK AO2 SLP233 T00780000
KDCA 172352Z 15003KT 10SM OVC085 08/M01 A3020 RMK AO2 SLP227 T00781006 10100 20067 50008
KDCA 180052Z 18007KT 10SM SCT075 OVC100 08/00 A3019 RMK AO2 SLP223 T00780000
KDCA 180152Z 19003KT 10SM BKN075 OVC085 08/00 A3018 RMK AO2 SLP218 T00780000
KDCA 180252Z 20005KT 10SM OVC065 07/01 A3017 RMK AO2 SLP216 T00720011 56011
KDCA 180352Z 00000KT 10SM OVC060 07/01 A3017 RMK AO2 SLP214 T00720011
KDCA 180452Z 00000KT 10SM OVC060 07/01 A3016 RMK AO2 SLP214 T00720011 401001011